Time;durP1;ratioP1;P1;durP2;ratioP2;P2;SDS_P1;SDS_P2;PMS_P1;PMS_P2;Temp;Humidity;BMP_temperature;BMP_pressure;BME280_temperature;BME280_humidity;BME280_pressure;Samples;Min_cycle;Max_cycle;Signal;HPM_P1;HPM_P2
2023/09/21 00:00:47;;;;;;;6.68;4.95;;;15.90;99.90;;;;;;2083130;28;20032;-80
2023/09/21 00:01:48;;;;;;;7.47;5.03;;;15.90;99.90;;;;;;2082979;28;20032;-80
2023/09/21 00:02:50;;;;;;;6.35;4.55;;;15.90;99.90;;;;;;2081502;28;20031;-80
2023/09/21 00:03:51;;;;;;;7.50;5.05;;;15.90;99.90;;;;;;2081730;28;20021;-82
2023/09/21 00:04:52;;;;;;;7.25;5.20;;;15.90;99.90;;;;;;2083099;28;20025;-82
2023/09/21 00:05:54;;;;;;;7.85;4.70;;;15.80;99.90;;;;;;2082505;28;20029;-82
2023/09/21 00:06:55;;;;;;;6.20;4.78;;;15.80;99.90;;;;;;2068049;28;20052;-82
2023/09/21 00:07:57;;;;;;;9.73;4.43;;;15.80;99.90;;;;;;2076837;28;20080;-81
2023/09/21 00:08:59;;;;;;;5.45;4.45;;;15.80;99.90;;;;;;2082876;28;20036;-81
2023/09/21 00:09:59;;;;;;;6.45;4.93;;;15.80;99.90;;;;;;2074812;28;20022;-79
2023/09/21 00:11:03;;;;;;;7.38;4.80;;;15.80;99.90;;;;;;2080499;28;20672;-81
2023/09/21 00:12:04;;;;;;;6.50;4.55;;;15.80;99.90;;;;;;2083118;28;20768;-80
2023/09/21 00:13:04;;;;;;;6.18;4.72;;;15.80;99.90;;;;;;2083157;28;20596;-80
2023/09/21 00:14:05;;;;;;;6.20;4.93;;;15.80;99.90;;;;;;2082642;28;20033;-80
2023/09/21 00:15:07;;;;;;;6.25;4.68;;;15.70;99.90;;;;;;2082385;28;20028;-79
2023/09/21 00:16:11;;;;;;;5.55;4.50;;;15.70;99.90;;;;;;2077774;28;20025;-79
2023/09/21 00:17:12;;;;;;;6.28;4.57;;;15.70;99.90;;;;;;2082084;28;20130;-80
2023/09/21 00:18:13;;;;;;;5.28;4.35;;;15.70;99.90;;;;;;2082730;28;20531;-79
2023/09/21 00:19:14;;;;;;;7.55;4.85;;;15.70;99.90;;;;;;2084086;28;20463;-80
2023/09/21 00:20:23;;;;;;;7.50;4.82;;;15.70;99.90;;;;;;2083395;28;20115;-80
2023/09/21 00:21:24;;;;;;;7.18;4.70;;;15.60;99.90;;;;;;2080643;28;20047;-80
2023/09/21 00:22:25;;;;;;;9.52;5.00;;;15.70;99.90;;;;;;2082496;28;20044;-80
2023/09/21 00:23:26;;;;;;;6.03;4.63;;;15.70;99.90;;;;;;2084013;28;20531;-80
2023/09/21 00:24:30;;;;;;;7.00;4.82;;;15.70;99.90;;;;;;2080738;28;20017;-80
2023/09/21 00:25:31;;;;;;;5.43;4.80;;;15.70;99.90;;;;;;2074344;28;20029;-81
2023/09/21 00:26:34;;;;;;;6.20;4.40;;;15.70;99.90;;;;;;2074322;28;20026;-79
2023/09/21 00:27:35;;;;;;;6.72;4.78;;;15.70;99.90;;;;;;2081073;28;20092;-79
2023/09/21 00:28:35;;;;;;;6.00;4.47;;;15.60;99.90;;;;;;2074398;28;20034;-81
2023/09/21 00:29:36;;;;;;;7.70;4.97;;;15.60;99.90;;;;;;2074648;28;20125;-79
2023/09/21 00:30:37;;;;;;;7.82;4.63;;;15.60;99.90;;;;;;2082452;28;20033;-79
2023/09/21 00:31:38;;;;;;;5.45;4.35;;;15.60;99.90;;;;;;2082081;28;20054;-79
2023/09/21 00:32:39;;;;;;;5.05;4.35;;;15.60;99.90;;;;;;2074863;28;20497;-81
2023/09/21 00:33:41;;;;;;;5.97;4.57;;;15.60;99.90;;;;;;2074528;28;20017;-80
2023/09/21 00:34:41;;;;;;;9.35;4.90;;;15.60;99.90;;;;;;2074449;28;20067;-80
2023/09/21 00:35:42;;;;;;;7.32;4.53;;;15.50;99.90;;;;;;2074177;28;20593;-80
2023/09/21 00:36:45;;;;;;;5.88;4.43;;;15.50;99.90;;;;;;2074842;28;20033;-80
2023/09/21 00:37:46;;;;;;;8.10;4.70;;;15.50;99.90;;;;;;2082372;28;20029;-77
2023/09/21 00:38:47;;;;;;;6.90;4.78;;;15.50;99.90;;;;;;2083388;28;20298;-80
2023/09/21 00:39:47;;;;;;;6.35;4.75;;;15.50;99.90;;;;;;2080580;28;20052;-83
2023/09/21 00:40:48;;;;;;;5.00;4.50;;;15.50;99.90;;;;;;2082855;28;20037;-80
2023/09/21 00:41:49;;;;;;;5.13;4.50;;;15.50;99.90;;;;;;2075584;28;20053;-82
2023/09/21 00:42:53;;;;;;;7.22;4.80;;;15.50;99.90;;;;;;2074348;28;20064;-81
2023/09/21 00:43:53;;;;;;;5.00;4.30;;;15.50;99.90;;;;;;2082670;28;20061;-82
2023/09/21 00:44:54;;;;;;;6.07;4.65;;;15.40;99.90;;;;;;2075651;28;20207;-81
2023/09/21 00:45:59;;;;;;;7.20;4.60;;;15.50;99.90;;;;;;2073516;28;20034;-85
2023/09/21 00:47:00;;;;;;;5.03;4.53;;;15.40;99.90;;;;;;2086328;28;20037;-87
2023/09/21 00:48:02;;;;;;;5.20;4.70;;;15.40;99.90;;;;;;2078770;28;20134;-81
2023/09/21 00:49:04;;;;;;;6.05;4.40;;;15.40;99.90;;;;;;2085247;28;20145;-82
2023/09/21 00:50:12;;;;;;;5.10;4.55;;;15.40;99.90;;;;;;2086897;28;20950;-82
2023/09/21 00:51:13;;;;;;;4.53;4.05;;;15.40;99.90;;;;;;2071548;28;20073;-82
2023/09/21 00:52:14;;;;;;;6.15;4.10;;;15.40;99.90;;;;;;2074440;28;20063;-80
2023/09/21 00:53:15;;;;;;;6.95;4.65;;;15.40;99.90;;;;;;2076747;28;20068;-80
2023/09/21 00:54:17;;;;;;;6.25;4.80;;;15.40;99.90;;;;;;2075917;28;20098;-79
2023/09/21 00:55:23;;;;;;;6.18;4.55;;;15.40;99.90;;;;;;2084861;28;20029;-80
2023/09/21 00:56:23;;;;;;;5.55;4.45;;;15.30;99.90;;;;;;2085196;28;20068;-80
2023/09/21 00:57:24;;;;;;;4.95;4.40;;;15.30;99.90;;;;;;2091238;28;20032;-80
2023/09/21 00:58:26;;;;;;;5.70;4.55;;;15.30;99.90;;;;;;2094508;28;20612;-81
2023/09/21 00:59:29;;;;;;;5.93;4.30;;;15.30;99.90;;;;;;2087738;28;20343;-81
2023/09/21 01:00:31;;;;;;;5.13;4.53;;;15.30;99.90;;;;;;2089058;28;20009;-81
2023/09/21 01:01:34;;;;;;;5.70;4.38;;;15.20;99.90;;;;;;2092196;28;20091;-82
2023/09/21 01:02:35;;;;;;;8.30;4.53;;;15.30;99.90;;;;;;2091378;28;20039;-80
2023/09/21 01:03:37;;;;;;;6.43;4.70;;;15.20;99.90;;;;;;2085135;28;20043;-82
2023/09/21 01:04:38;;;;;;;6.20;4.68;;;15.20;99.90;;;;;;2084385;28;20033;-82
2023/09/21 01:05:39;;;;;;;7.13;4.60;;;15.20;99.90;;;;;;2084773;28;20032;-81
2023/09/21 01:06:45;;;;;;;7.03;4.53;;;15.20;99.90;;;;;;2085497;28;20063;-81
2023/09/21 01:07:48;;;;;;;7.43;4.93;;;15.20;99.90;;;;;;2081029;28;20034;-81
2023/09/21 01:08:49;;;;;;;6.93;4.90;;;15.20;99.90;;;;;;2076926;28;20038;-80
2023/09/21 01:09:50;;;;;;;7.10;4.53;;;15.20;99.90;;;;;;2079546;28;20581;-80
2023/09/21 01:10:51;;;;;;;6.82;4.80;;;15.20;99.90;;;;;;2074921;28;20087;-80
2023/09/21 01:11:51;;;;;;;6.18;4.95;;;15.20;99.90;;;;;;2083107;28;20029;-80
2023/09/21 01:12:53;;;;;;;6.53;4.80;;;15.10;99.90;;;;;;2083329;28;20029;-80
2023/09/21 01:13:54;;;;;;;7.88;5.13;;;15.10;99.90;;;;;;2074891;28;20112;-81
2023/09/21 01:15:10;;;;;;;6.88;4.85;;;15.10;99.90;;;;;;2074788;28;20025;-81
2023/09/21 01:16:11;;;;;;;5.68;4.82;;;15.10;99.90;;;;;;2079810;28;20021;-81
2023/09/21 01:17:12;;;;;;;6.60;5.03;;;15.00;99.90;;;;;;2083878;28;20137;-80
2023/09/21 01:18:16;;;;;;;7.40;4.97;;;15.00;99.90;;;;;;2082751;28;20135;-80
2023/09/21 01:19:16;;;;;;;5.90;5.00;;;15.00;99.90;;;;;;2074768;28;20025;-81
2023/09/21 01:20:23;;;;;;;5.80;5.05;;;15.00;99.90;;;;;;2078386;28;20024;-76
2023/09/21 01:21:34;;;;;;;6.32;5.20;;;15.00;99.90;;;;;;2086460;28;20054;-80
2023/09/21 01:22:35;;;;;;;6.88;5.00;;;15.00;99.90;;;;;;2089707;28;20031;-80
2023/09/21 01:23:49;;;;;;;7.38;5.32;;;14.90;99.90;;;;;;2083743;28;20078;-79
2023/09/21 01:24:49;;;;;;;6.85;4.85;;;14.90;99.90;;;;;;2083554;28;20492;-81
2023/09/21 01:25:51;;;;;;;7.50;5.30;;;14.90;99.90;;;;;;2082665;28;20029;-81
2023/09/21 01:26:51;;;;;;;7.75;4.85;;;15.00;99.90;;;;;;2086456;28;20107;-82
2023/09/21 01:27:53;;;;;;;6.90;4.78;;;14.90;99.90;;;;;;2090699;28;20020;-82
2023/09/21 01:28:56;;;;;;;5.18;4.68;;;15.00;99.90;;;;;;2084196;28;20041;-81
2023/09/21 01:29:57;;;;;;;6.25;5.10;;;14.90;99.90;;;;;;2087088;28;20515;-82
2023/09/21 01:30:58;;;;;;;7.95;5.10;;;14.90;99.90;;;;;;2084139;28;20229;-81
2023/09/21 01:31:59;;;;;;;7.25;4.60;;;14.90;99.90;;;;;;2084029;28;20024;-80
2023/09/21 01:33:04;;;;;;;6.57;5.00;;;14.90;99.90;;;;;;2084035;28;20484;-81
2023/09/21 01:34:05;;;;;;;7.55;4.85;;;14.90;99.90;;;;;;2084745;28;20033;-81
2023/09/21 01:35:08;;;;;;;9.75;5.18;;;14.90;99.90;;;;;;2081207;28;20025;-81
2023/09/21 01:36:12;;;;;;;6.55;4.85;;;14.90;99.90;;;;;;2082433;28;20055;-80
2023/09/21 01:37:14;;;;;;;9.02;5.28;;;14.90;99.90;;;;;;2084205;28;20025;-81
2023/09/21 01:38:15;;;;;;;6.82;4.90;;;14.90;99.90;;;;;;2084063;28;20037;-81
2023/09/21 01:39:16;;;;;;;7.10;4.90;;;14.90;99.90;;;;;;2083797;28;20033;-81
2023/09/21 01:40:17;;;;;;;7.75;5.22;;;14.80;99.90;;;;;;2083836;28;20102;-81
2023/09/21 01:41:18;;;;;;;8.77;5.13;;;14.90;99.90;;;;;;2076006;28;20029;-81
2023/09/21 01:42:19;;;;;;;6.60;4.70;;;14.90;99.90;;;;;;2075750;28;20053;-80
2023/09/21 01:43:20;;;;;;;5.63;4.63;;;14.80;99.90;;;;;;2075599;28;20136;-80
2023/09/21 01:44:21;;;;;;;5.88;4.90;;;14.80;99.90;;;;;;2075859;28;20037;-82
2023/09/21 01:45:22;;;;;;;5.22;4.55;;;14.80;99.90;;;;;;2071925;28;20044;-81
2023/09/21 01:46:23;;;;;;;6.03;5.05;;;14.90;99.90;;;;;;2084007;28;20024;-82
2023/09/21 01:47:25;;;;;;;5.70;4.97;;;14.80;99.90;;;;;;2085048;28;20409;-81
2023/09/21 01:48:27;;;;;;;6.60;5.10;;;14.80;99.90;;;;;;2082519;28;20103;-81
2023/09/21 01:49:27;;;;;;;8.15;5.07;;;14.70;99.90;;;;;;2076777;28;20028;-82
2023/09/21 01:50:29;;;;;;;5.45;4.85;;;14.80;99.90;;;;;;2084043;28;20092;-81
2023/09/21 01:51:29;;;;;;;5.50;4.90;;;14.80;99.90;;;;;;2084270;28;20036;-81
2023/09/21 01:52:30;;;;;;;5.85;4.88;;;14.70;99.90;;;;;;2084530;28;20047;-81
2023/09/21 01:53:32;;;;;;;6.05;4.93;;;14.70;99.90;;;;;;2084383;28;20507;-80
2023/09/21 01:54:32;;;;;;;7.13;5.30;;;14.70;99.90;;;;;;2083867;28;20063;-81
2023/09/21 01:55:33;;;;;;;7.82;5.30;;;14.70;99.90;;;;;;2070320;28;20571;-82
2023/09/21 01:56:34;;;;;;;7.85;4.90;;;14.70;99.90;;;;;;2075457;28;20038;-81
2023/09/21 01:57:36;;;;;;;7.35;4.97;;;14.70;99.90;;;;;;2075273;28;20035;-82
2023/09/21 01:58:36;;;;;;;7.20;5.03;;;14.70;99.90;;;;;;2071656;28;20033;-82
2023/09/21 01:59:37;;;;;;;6.07;5.07;;;14.70;99.90;;;;;;2075270;28;20033;-82
2023/09/21 02:00:43;;;;;;;6.53;5.20;;;14.70;99.90;;;;;;2075592;28;20029;-81
2023/09/21 02:01:48;;;;;;;7.57;4.85;;;14.70;99.90;;;;;;2068007;28;20504;-80
2023/09/21 02:02:48;;;;;;;7.75;5.00;;;14.70;99.90;;;;;;2067624;28;20049;-81
2023/09/21 02:03:50;;;;;;;6.05;5.05;;;14.70;99.90;;;;;;2083293;28;20025;-81
2023/09/21 02:04:51;;;;;;;6.63;5.28;;;14.70;99.90;;;;;;2083376;28;20048;-81
2023/09/21 02:05:52;;;;;;;6.82;5.00;;;14.70;99.90;;;;;;2084337;28;20040;-81
2023/09/21 02:06:52;;;;;;;6.03;4.80;;;14.70;99.90;;;;;;2077317;28;20025;-80
2023/09/21 02:07:55;;;;;;;7.32;5.15;;;14.70;99.90;;;;;;2083485;28;20032;-81
2023/09/21 02:08:57;;;;;;;5.80;5.10;;;14.70;99.90;;;;;;2083696;28;20113;-81
2023/09/21 02:09:58;;;;;;;5.72;5.00;;;14.70;99.90;;;;;;2079954;28;20078;-80
2023/09/21 02:10:59;;;;;;;8.98;5.20;;;14.70;99.90;;;;;;2088119;28;20467;-81
2023/09/21 02:12:00;;;;;;;6.90;5.00;;;14.70;99.90;;;;;;2084445;28;20366;-81
2023/09/21 02:13:01;;;;;;;6.63;5.05;;;14.70;99.90;;;;;;2084494;28;20028;-81
2023/09/21 02:14:02;;;;;;;8.98;5.55;;;14.60;99.90;;;;;;2092118;28;20043;-82
2023/09/21 02:15:12;;;;;;;6.38;4.88;;;14.70;99.90;;;;;;2083494;28;20021;-81
2023/09/21 02:16:14;;;;;;;7.20;5.25;;;14.70;99.90;;;;;;2080136;28;20035;-82
2023/09/21 02:17:17;;;;;;;6.03;5.20;;;14.60;99.90;;;;;;2083832;28;20424;-82
2023/09/21 02:18:17;;;;;;;6.93;5.30;;;14.60;99.90;;;;;;2084129;28;20144;-82
2023/09/21 02:19:18;;;;;;;8.07;5.45;;;14.60;99.90;;;;;;2084874;28;20021;-81
2023/09/21 02:20:20;;;;;;;7.28;5.43;;;14.60;99.90;;;;;;2079872;28;20139;-83
2023/09/21 02:21:20;;;;;;;6.68;5.40;;;14.60;99.90;;;;;;2084282;28;20037;-81
2023/09/21 02:22:21;;;;;;;6.50;5.15;;;14.50;99.90;;;;;;2084019;28;20029;-81
2023/09/21 02:23:23;;;;;;;5.75;4.90;;;14.50;99.90;;;;;;2083910;28;20301;-82
2023/09/21 02:24:25;;;;;;;8.68;5.57;;;14.50;99.90;;;;;;2085037;28;20025;-81
2023/09/21 02:25:30;;;;;;;7.05;5.57;;;14.50;99.90;;;;;;2089080;28;20047;-79
2023/09/21 02:26:30;;;;;;;7.05;5.25;;;14.50;99.90;;;;;;2092012;28;20029;-81
2023/09/21 02:27:34;;;;;;;7.13;5.40;;;14.50;99.90;;;;;;2084321;28;20068;-83
2023/09/21 02:28:35;;;;;;;7.57;5.45;;;14.50;99.90;;;;;;2081701;28;20397;-81
2023/09/21 02:29:40;;;;;;;8.15;5.40;;;14.50;99.90;;;;;;2084900;28;20032;-81
2023/09/21 02:30:46;;;;;;;6.65;5.00;;;14.40;99.90;;;;;;2083550;28;20033;-82
2023/09/21 02:31:46;;;;;;;7.68;5.60;;;14.40;99.90;;;;;;2083797;28;20432;-80
2023/09/21 02:32:51;;;;;;;7.85;5.60;;;14.40;99.90;;;;;;2083816;28;20057;-81
2023/09/21 02:33:51;;;;;;;8.27;5.65;;;14.40;99.90;;;;;;2083703;28;20031;-81
2023/09/21 02:34:52;;;;;;;7.50;5.68;;;14.40;99.90;;;;;;2075751;28;20081;-81
2023/09/21 02:35:53;;;;;;;7.05;5.60;;;14.40;99.90;;;;;;2083777;28;20052;-82
2023/09/21 02:36:55;;;;;;;8.65;5.35;;;14.40;99.90;;;;;;2084664;28;20107;-84
2023/09/21 02:37:57;;;;;;;6.50;5.20;;;14.40;99.90;;;;;;2084348;28;20476;-80
2023/09/21 02:38:57;;;;;;;6.32;5.47;;;14.40;99.90;;;;;;2083863;28;20515;-82
2023/09/21 02:39:58;;;;;;;7.10;5.35;;;14.40;99.90;;;;;;2083868;28;20083;-81
2023/09/21 02:41:00;;;;;;;6.10;5.50;;;14.40;99.90;;;;;;2083896;28;20032;-83
2023/09/21 02:42:00;;;;;;;5.90;5.30;;;14.40;99.90;;;;;;2083538;28;20550;-83
2023/09/21 02:43:01;;;;;;;6.95;5.68;;;14.40;99.90;;;;;;2083841;28;20041;-82
2023/09/21 02:44:03;;;;;;;6.65;5.50;;;14.40;99.90;;;;;;2080500;28;20034;-82
2023/09/21 02:45:04;;;;;;;6.97;5.50;;;14.40;99.90;;;;;;2083850;28;20043;-82
2023/09/21 02:46:06;;;;;;;8.77;5.55;;;14.40;99.90;;;;;;2083428;28;20033;-83
2023/09/21 02:47:07;;;;;;;6.13;5.20;;;14.40;99.90;;;;;;2083926;28;20029;-82
2023/09/21 02:48:08;;;;;;;9.52;5.93;;;14.30;99.90;;;;;;2075821;28;20021;-82
2023/09/21 02:49:09;;;;;;;7.63;5.75;;;14.40;99.90;;;;;;2079593;28;20411;-82
2023/09/21 02:50:14;;;;;;;7.88;5.47;;;14.30;99.90;;;;;;2073207;28;20021;-81
2023/09/21 02:51:15;;;;;;;7.10;5.57;;;14.30;99.90;;;;;;2078037;28;20516;-81
2023/09/21 02:52:16;;;;;;;6.57;5.40;;;14.30;99.90;;;;;;2075739;28;20040;-81
2023/09/21 02:53:17;;;;;;;6.75;5.63;;;14.30;99.90;;;;;;2083899;28;20519;-82
2023/09/21 02:54:17;;;;;;;7.07;5.80;;;14.30;99.90;;;;;;2083329;28;20021;-82
2023/09/21 02:55:20;;;;;;;7.63;5.72;;;14.30;99.90;;;;;;2084060;28;20202;-82
2023/09/21 02:56:21;;;;;;;9.02;5.82;;;14.30;99.90;;;;;;2091785;28;20036;-82
2023/09/21 02:57:22;;;;;;;6.05;5.25;;;14.30;99.90;;;;;;2091959;28;20044;-82
2023/09/21 02:58:23;;;;;;;7.07;5.75;;;14.30;99.90;;;;;;2083985;28;20598;-82
2023/09/21 02:59:27;;;;;;;8.18;5.75;;;14.30;99.90;;;;;;2083823;28;20055;-81
2023/09/21 03:00:35;;;;;;;6.25;5.47;;;14.30;99.90;;;;;;2083619;28;20515;-81
2023/09/21 03:01:37;;;;;;;6.60;5.15;;;14.30;99.90;;;;;;2081173;28;20025;-81
2023/09/21 03:02:37;;;;;;;7.30;6.00;;;14.20;99.90;;;;;;2089224;28;20032;-84
2023/09/21 03:03:38;;;;;;;7.18;6.00;;;14.20;99.90;;;;;;2093341;28;20047;-83
2023/09/21 03:04:38;;;;;;;8.02;5.95;;;14.20;99.90;;;;;;2081012;28;20048;-83
2023/09/21 03:05:40;;;;;;;8.27;5.63;;;14.20;99.90;;;;;;2073687;28;20025;-82
2023/09/21 03:06:42;;;;;;;6.90;5.70;;;14.20;99.90;;;;;;2081230;28;20112;-82
2023/09/21 03:07:44;;;;;;;7.15;5.40;;;14.20;99.90;;;;;;2084024;28;20111;-82
2023/09/21 03:08:49;;;;;;;6.97;6.10;;;14.20;99.90;;;;;;2083705;28;20039;-81
2023/09/21 03:09:49;;;;;;;7.15;5.50;;;14.20;99.90;;;;;;2082700;28;20033;-81
2023/09/21 03:10:53;;;;;;;7.68;5.72;;;14.20;99.90;;;;;;2083392;28;20475;-81
2023/09/21 03:11:54;;;;;;;6.80;5.45;;;14.20;99.90;;;;;;2083173;28;20424;-82
2023/09/21 03:12:54;;;;;;;6.43;5.47;;;14.20;99.90;;;;;;2075950;28;20025;-81
2023/09/21 03:13:56;;;;;;;8.98;5.70;;;14.20;99.90;;;;;;2083655;28;20040;-82
2023/09/21 03:14:57;;;;;;;7.10;5.80;;;14.20;99.90;;;;;;2075421;28;20832;-81
2023/09/21 03:15:58;;;;;;;7.22;5.78;;;14.30;99.90;;;;;;2079686;28;20321;-81
2023/09/21 03:16:58;;;;;;;8.18;5.80;;;14.30;99.90;;;;;;2083132;28;20144;-81
2023/09/21 03:18:00;;;;;;;8.30;5.80;;;14.20;99.90;;;;;;2079260;28;20029;-82
2023/09/21 03:19:01;;;;;;;9.30;6.18;;;14.30;99.90;;;;;;2082905;28;20121;-81
2023/09/21 03:20:09;;;;;;;7.97;5.85;;;14.20;99.90;;;;;;2075131;28;20027;-81
2023/09/21 03:21:11;;;;;;;7.93;6.05;;;14.20;99.90;;;;;;2075005;28;20192;-81
2023/09/21 03:22:13;;;;;;;8.77;5.57;;;14.30;99.90;;;;;;2086240;28;20087;-82
2023/09/21 03:23:15;;;;;;;9.20;5.88;;;14.30;99.90;;;;;;2077554;28;20033;-82
2023/09/21 03:24:17;;;;;;;8.73;5.93;;;14.30;99.90;;;;;;2083090;28;20408;-82
2023/09/21 03:25:25;;;;;;;7.85;5.93;;;14.30;99.90;;;;;;2075259;28;20025;-81
2023/09/21 03:26:26;;;;;;;6.82;6.10;;;14.30;99.90;;;;;;2083535;28;20025;-82
2023/09/21 03:27:27;;;;;;;7.63;5.97;;;14.30;99.90;;;;;;2079580;28;20029;-82
2023/09/21 03:28:28;;;;;;;6.97;6.00;;;14.30;99.90;;;;;;2082792;28;20025;-82
2023/09/21 03:29:29;;;;;;;9.13;6.25;;;14.30;99.90;;;;;;2079939;28;20043;-79
2023/09/21 03:30:31;;;;;;;10.02;6.18;;;14.30;99.90;;;;;;2083497;28;20029;-82
2023/09/21 03:31:32;;;;;;;9.07;5.63;;;14.30;99.90;;;;;;2074757;28;20073;-82
2023/09/21 03:32:33;;;;;;;7.63;5.85;;;14.30;99.90;;;;;;2074730;28;20694;-82
2023/09/21 03:33:33;;;;;;;8.40;5.55;;;14.30;99.90;;;;;;2067213;28;20091;-82
2023/09/21 03:34:34;;;;;;;7.65;6.13;;;14.30;99.90;;;;;;2072965;28;20087;-82
2023/09/21 03:35:35;;;;;;;9.77;6.20;;;14.30;99.90;;;;;;2086969;28;20100;-82
2023/09/21 03:36:38;;;;;;;7.70;5.82;;;14.30;99.90;;;;;;2075052;28;20048;-83
2023/09/21 03:37:41;;;;;;;8.13;5.93;;;14.30;99.90;;;;;;2083216;28;20017;-83
2023/09/21 03:38:41;;;;;;;10.32;5.90;;;14.30;99.90;;;;;;2083413;28;20369;-83
2023/09/21 03:39:42;;;;;;;10.18;6.15;;;14.30;99.90;;;;;;2083241;28;20260;-83
2023/09/21 03:40:43;;;;;;;11.43;6.32;;;14.30;99.90;;;;;;2070151;28;20490;-83
2023/09/21 03:41:46;;;;;;;13.45;6.53;;;14.30;99.90;;;;;;2071456;28;20033;-82
2023/09/21 03:42:46;;;;;;;11.88;6.45;;;14.30;99.90;;;;;;2079921;28;20037;-83
2023/09/21 03:43:47;;;;;;;10.65;6.05;;;14.30;99.90;;;;;;2083680;28;20028;-83
2023/09/21 03:44:48;;;;;;;9.05;6.15;;;14.20;99.90;;;;;;2083437;28;20060;-83
2023/09/21 03:45:49;;;;;;;9.98;6.20;;;14.20;99.90;;;;;;2080341;28;20975;-74
2023/09/21 03:46:50;;;;;;;11.88;6.72;;;14.30;99.90;;;;;;2081887;28;20510;-78
2023/09/21 03:47:52;;;;;;;12.98;6.78;;;14.30;99.90;;;;;;2082991;28;20028;-78
2023/09/21 03:48:52;;;;;;;11.57;6.20;;;14.30;99.90;;;;;;2078378;28;20029;-78
2023/09/21 03:49:53;;;;;;;12.18;6.65;;;14.20;99.90;;;;;;2076474;28;20025;-78
2023/09/21 03:50:55;;;;;;;11.48;6.68;;;14.20;99.90;;;;;;2079341;28;20025;-77
2023/09/21 03:51:56;;;;;;;11.90;6.72;;;14.20;99.90;;;;;;2081765;28;20429;-77
2023/09/21 03:52:57;;;;;;;12.93;6.35;;;14.30;99.90;;;;;;2073258;28;20025;-78
2023/09/21 03:53:59;;;;;;;10.95;6.25;;;14.30;99.90;;;;;;2066478;28;20534;-78
2023/09/21 03:55:01;;;;;;;12.43;6.63;;;14.30;99.90;;;;;;2075141;28;20057;-78
2023/09/21 03:56:02;;;;;;;14.07;6.72;;;14.30;99.90;;;;;;2078475;28;20421;-79
2023/09/21 03:57:04;;;;;;;13.05;6.70;;;14.30;99.90;;;;;;2082957;28;20028;-78
2023/09/21 03:58:05;;;;;;;10.40;6.45;;;14.30;99.90;;;;;;2082744;28;20110;-69
2023/09/21 03:59:06;;;;;;;11.98;6.78;;;14.30;99.90;;;;;;2080958;28;20028;-69
2023/09/21 04:00:21;;;;;;;11.70;6.03;;;14.30;99.90;;;;;;2083364;28;20239;-70
2023/09/21 04:01:22;;;;;;;10.40;6.25;;;14.30;99.90;;;;;;2076172;28;20025;-70
2023/09/21 04:02:23;;;;;;;10.43;6.03;;;14.30;99.90;;;;;;2074300;28;20231;-69
2023/09/21 04:03:26;;;;;;;10.90;6.30;;;14.30;99.90;;;;;;2082150;28;20021;-69
2023/09/21 04:04:36;;;;;;;9.90;6.30;;;14.30;99.90;;;;;;2081281;28;20041;-69
2023/09/21 04:05:39;;;;;;;14.43;6.60;;;14.30;99.90;;;;;;2077386;28;20056;-69
2023/09/21 04:06:40;;;;;;;10.13;6.47;;;14.30;99.90;;;;;;2084672;28;20103;-70
2023/09/21 04:07:41;;;;;;;13.05;6.50;;;14.30;99.90;;;;;;2087624;28;20036;-69
2023/09/21 04:08:41;;;;;;;13.02;6.20;;;14.30;99.90;;;;;;2078787;28;20544;-71
2023/09/21 04:09:42;;;;;;;10.77;6.22;;;14.20;99.90;;;;;;2082898;28;20025;-72
2023/09/21 04:10:42;;;;;;;10.52;6.10;;;14.20;99.90;;;;;;2074332;28;20257;-72
2023/09/21 04:11:43;;;;;;;8.55;5.90;;;14.20;99.90;;;;;;2083083;28;20028;-71
2023/09/21 04:12:44;;;;;;;9.80;6.10;;;14.20;99.90;;;;;;2080009;28;20515;-71
2023/09/21 04:13:45;;;;;;;9.82;6.07;;;14.20;99.90;;;;;;2080383;28;20040;-71
2023/09/21 04:14:46;;;;;;;14.85;9.75;;;14.20;99.90;;;;;;2082786;28;20144;-71
2023/09/21 04:15:46;;;;;;;15.50;9.43;;;14.20;99.90;;;;;;2074794;28;20049;-71
2023/09/21 04:16:47;;;;;;;14.20;7.38;;;14.30;99.90;;;;;;2075448;28;20113;-71
2023/09/21 04:17:49;;;;;;;11.32;6.40;;;14.30;99.90;;;;;;2084442;28;20033;-70
2023/09/21 04:18:50;;;;;;;10.60;6.13;;;14.30;99.90;;;;;;2088280;28;20036;-71
2023/09/21 04:19:54;;;;;;;8.60;6.38;;;14.30;99.90;;;;;;2083860;28;20052;-70
2023/09/21 04:20:55;;;;;;;9.68;5.85;;;14.30;99.90;;;;;;2074554;28;20091;-71
2023/09/21 04:21:56;;;;;;;9.00;6.03;;;14.30;99.90;;;;;;2082126;28;20186;-69
2023/09/21 04:23:00;;;;;;;9.55;6.45;;;14.30;99.90;;;;;;2082247;28;20075;-69
2023/09/21 04:24:01;;;;;;;13.32;6.32;;;14.30;99.90;;;;;;2074906;28;20071;-69
2023/09/21 04:25:07;;;;;;;10.57;5.97;;;14.30;99.90;;;;;;2078918;28;20424;-69
2023/09/21 04:26:10;;;;;;;11.45;6.50;;;14.20;99.90;;;;;;2083158;28;20025;-69
2023/09/21 04:27:11;;;;;;;10.23;6.32;;;14.20;99.90;;;;;;2090999;28;20473;-69
2023/09/21 04:28:12;;;;;;;11.27;6.20;;;14.20;99.90;;;;;;2074563;28;20029;-68
2023/09/21 04:29:15;;;;;;;8.57;6.03;;;14.20;99.90;;;;;;2074529;28;20475;-69
2023/09/21 04:30:21;;;;;;;8.95;6.18;;;14.20;99.90;;;;;;2074708;28;20030;-69
2023/09/21 04:31:22;;;;;;;11.55;6.05;;;14.20;99.90;;;;;;2082125;28;20718;-69
2023/09/21 04:32:22;;;;;;;6.50;5.57;;;14.20;99.90;;;;;;2078842;28;20020;-68
2023/09/21 04:33:23;;;;;;;7.82;6.35;;;14.10;99.90;;;;;;2076175;28;20059;-68
2023/09/21 04:34:24;;;;;;;12.27;6.50;;;14.10;99.90;;;;;;2078708;28;20020;-69
2023/09/21 04:35:25;;;;;;;9.70;6.35;;;14.20;99.90;;;;;;2082646;28;20025;-69
2023/09/21 04:36:26;;;;;;;10.63;6.78;;;14.10;99.90;;;;;;2082908;28;20025;-68
2023/09/21 04:37:26;;;;;;;9.25;6.32;;;14.20;99.90;;;;;;2090812;28;20090;-68
2023/09/21 04:38:27;;;;;;;8.40;5.97;;;14.10;99.90;;;;;;2090539;28;20040;-70
2023/09/21 04:39:28;;;;;;;8.40;5.93;;;14.10;99.90;;;;;;2091049;28;20429;-69
2023/09/21 04:40:29;;;;;;;9.35;5.90;;;14.10;99.90;;;;;;2080951;28;20540;-70
2023/09/21 04:41:33;;;;;;;12.32;6.10;;;14.10;99.90;;;;;;2082220;28;20119;-70
2023/09/21 04:42:34;;;;;;;12.02;5.82;;;14.10;99.90;;;;;;2074269;28;20038;-72
2023/09/21 04:43:39;;;;;;;9.20;6.43;;;14.10;99.90;;;;;;2082265;28;20048;-72
2023/09/21 04:44:40;;;;;;;10.30;6.30;;;14.10;99.90;;;;;;2074615;28;20029;-72
2023/09/21 04:45:40;;;;;;;9.77;5.93;;;14.10;99.90;;;;;;2074094;28;20032;-72
2023/09/21 04:46:42;;;;;;;12.20;6.03;;;14.10;99.90;;;;;;2079748;28;20471;-72
2023/09/21 04:47:47;;;;;;;9.40;6.07;;;14.10;99.90;;;;;;2078573;28;20586;-72
2023/09/21 04:48:47;;;;;;;9.07;5.90;;;14.10;99.90;;;;;;2076991;28;20029;-71
2023/09/21 04:49:48;;;;;;;9.93;6.20;;;14.10;99.90;;;;;;2076105;28;20510;-71
2023/09/21 04:50:48;;;;;;;11.18;6.35;;;14.10;99.90;;;;;;2080907;28;20025;-71
2023/09/21 04:51:49;;;;;;;7.40;5.72;;;14.10;99.90;;;;;;2070840;28;20672;-72
2023/09/21 04:52:50;;;;;;;8.23;6.00;;;14.10;99.90;;;;;;2074435;28;20030;-72
2023/09/21 04:53:52;;;;;;;8.23;6.30;;;14.10;99.90;;;;;;2074317;28;21020;-72
2023/09/21 04:54:53;;;;;;;8.85;6.40;;;14.10;99.90;;;;;;2076795;28;20107;-72
2023/09/21 04:55:53;;;;;;;9.52;6.47;;;14.20;99.90;;;;;;2074233;28;20037;-72
2023/09/21 04:56:54;;;;;;;9.02;6.35;;;14.20;99.90;;;;;;2082838;28;20115;-72
2023/09/21 04:57:55;;;;;;;8.98;6.45;;;14.20;99.90;;;;;;2074330;28;20072;-72
2023/09/21 04:58:56;;;;;;;10.15;6.60;;;14.20;99.90;;;;;;2073937;28;20028;-73
2023/09/21 04:59:58;;;;;;;12.93;6.47;;;14.20;99.90;;;;;;2079390;28;20043;-72
2023/09/21 05:00:59;;;;;;;9.57;6.55;;;14.20;99.90;;;;;;2080691;28;20033;-73
2023/09/21 05:02:00;;;;;;;8.65;6.20;;;14.20;99.90;;;;;;2078366;28;20567;-71
2023/09/21 05:03:00;;;;;;;8.90;6.30;;;14.20;99.90;;;;;;2066665;28;20029;-70
2023/09/21 05:04:01;;;;;;;9.43;6.43;;;14.20;99.90;;;;;;2083263;28;20017;-71
2023/09/21 05:05:03;;;;;;;8.50;6.50;;;14.20;99.90;;;;;;2075534;28;20080;-71
2023/09/21 05:06:06;;;;;;;9.43;6.55;;;14.30;99.90;;;;;;2071876;28;20064;-71
2023/09/21 05:07:07;;;;;;;11.02;6.63;;;14.30;99.90;;;;;;2080546;28;20066;-71
2023/09/21 05:08:09;;;;;;;10.00;6.22;;;14.30;99.90;;;;;;2084265;28;20428;-72
2023/09/21 05:09:10;;;;;;;9.43;6.68;;;14.30;99.90;;;;;;2084093;28;20032;-72
2023/09/21 05:10:12;;;;;;;11.90;6.60;;;14.30;99.90;;;;;;2084242;28;20040;-71
2023/09/21 05:11:13;;;;;;;8.50;6.47;;;14.40;99.90;;;;;;2084121;28;20052;-71
2023/09/21 05:12:16;;;;;;;11.20;6.70;;;14.40;99.90;;;;;;2083819;28;20653;-69
2023/09/21 05:13:18;;;;;;;9.40;6.57;;;14.40;99.90;;;;;;2084321;28;20028;-69
2023/09/21 05:14:21;;;;;;;9.13;6.90;;;14.40;99.90;;;;;;2092180;28;20036;-70
2023/09/21 05:15:22;;;;;;;13.00;7.50;;;14.50;99.90;;;;;;2084071;28;20045;-71
2023/09/21 05:16:22;;;;;;;9.68;7.20;;;14.50;99.90;;;;;;2088439;28;20044;-71
2023/09/21 05:17:23;;;;;;;9.77;7.20;;;14.50;99.90;;;;;;2083448;28;20917;-70
2023/09/21 05:18:23;;;;;;;10.73;6.80;;;14.50;99.90;;;;;;2083445;28;20041;-70
2023/09/21 05:19:25;;;;;;;9.40;6.78;;;14.50;99.90;;;;;;2079202;28;20494;-70
2023/09/21 05:20:25;;;;;;;9.93;6.55;;;14.60;99.90;;;;;;2076336;28;20448;-70
2023/09/21 05:21:26;;;;;;;12.70;7.05;;;14.60;99.90;;;;;;2083211;28;20159;-71